Weather at Norberg

Public forecast

Using degrees Celsius for public forecast. Weather courtesy of forecast.io.

Closest aviation weather report (METAR) to Norberg

Closest report is Dala Airport, 22.9 nm (42.4 km) NW. Retrieved 2022/07/04 14:20 UTC (36 minutes ago):

ESSD 041420Z AUTO 25008KT 9999 BKN047/// BKN062/// 18/11 Q1008

Closest aviation forecast (TAF) to Norberg

Forecast is more than 12 hours old.

Closest forecast is Dala Airport, 22.9 nm (42.4 km) NW. Retrieved 2022/04/07 18:12 UTC (3 months ago):

TAF ESSD 071731Z 0718/0806 CNL